Etusivu
METAR-TAF:

METAR-TAF

Lentoasemat :

Larnakan kansainvälinen lentoasema

Larnaka, Kypros

Leveyspiiri: 34-53N, Pituuspiiri: 033-38E, korkeus merenpinnasta: 2 m

Tämänhetkinen sää

Tämä raportti tehtiin 37 minuuttia sitten, kello 04.00 UTC
Tuuli 6 kn lännestä/luoteesta, vaihdellen lännen/lounaan ja luoteen välillä
Lämpötila 16°C
Kosteus 88%
Ilmanpaine 1018 hPa
Näkyvyys 10 km tai enemmän
Muutamia pilviä 4000 ft:n korkeudessa

METAR: LCLK 210400Z 30006KT 250V320 9999 FEW040 16/14 Q1018 NOSIG

Aika: 06:37 (04:37 UTC)

Sääennuste

Tämä raportti tehtiin 5 tuntia ja 7 minuuttia sitten, kello 23.30 UTC
Ennuste voimassa 21. päivästä klo 00 UTC - 21. päivään klo 24 UTC
Tuuli 6 kn pohjoisen/luoteesta
Näkyvyys 10 km tai enemmän
Muutamia pilviä 3000 ft:n korkeudessa
Tulossa
21. päivästä klo 08 UTC - 21. päivään klo 11 UTC
Tuuli 13 kn etelästä/lounaasta

TAF: LCLK 202330Z 2100/2124 33006KT 9999 FEW030 BECMG 2108/2111 21013KT

Säähavainnot ja -ennusteet yli 4000 lentoasemalta (METAR- ja TAF-raportit).

Käytössä olevat sääasemat on merkitty karttaan keltaisilla ja punaisilla pisteillä.

Aseta hiiri pisteen päälle nähdäksesi sääaseman nimen.

Klikkaa sitten nähdäksesi säähavainnot ja -ennusteet.

Kartan vaihtaminen: klikkaa mustalla rastilla varustettuja vihreitä pisteitä, niin voit zoomata sisään; viivalla varustettua vihreää pistettä, niin voit zoomata ulos tai vihreitä nuolia, niin pääset viereisille kartoille.


METAR-TAF: